Fish House, New York
Current Conditions -  °F | °C
As of 5:15 AM on Tuesday 21 Oct 2014 (Local Time) from KNY0 Reporting Station
Overcast Overcast  
Wind Chill: 40°   Ceiling: 6500
Heat Index: 43°   Visibility: 10mi
Dew Point: 39°   Wind: 5mph
Humidity: 87%   Direction: 50°NE
Pressure: 29.89"   Gusts: NA
Location:  43.0744°N, 74.1473°W
Report Text: KNY0 210915Z AUTO 05004KT 10SM OVC065 06/04 A2989 RMK AO2 T00600040
Loading
Personal Weather Stations






























Interactive Weather Map
Tropical Storm Tracking
New forecast layout! Learn more

10-Day Weather Forecast

Advertisements
Track Severe Weather on mobile